sensor_id;sensor_type;location;lat;lon;timestamp;pressure;altitude;pressure_sealevel;temperature;humidity
15260;BME280;34462;51.368;12.364;2024-03-08T00:00:52;18298.00;;;-141.84;70.01
15260;BME280;34462;51.368;12.364;2024-03-08T00:03:21;18316.28;;;-141.84;70.42
15260;BME280;34462;51.368;12.364;2024-03-08T00:05:50;18302.06;;;-141.84;71.06
15260;BME280;34462;51.368;12.364;2024-03-08T00:08:19;18310.19;;;-141.84;71.44
15260;BME280;34462;51.368;12.364;2024-03-08T00:10:48;18287.84;;;-141.84;71.22
15260;BME280;34462;51.368;12.364;2024-03-08T00:13:16;18308.16;;;-141.84;70.06
15260;BME280;34462;51.368;12.364;2024-03-08T00:15:45;18304.09;;;-141.84;69.41
15260;BME280;34462;51.368;12.364;2024-03-08T00:18:13;18304.09;;;-141.84;69.55
15260;BME280;34462;51.368;12.364;2024-03-08T00:20:41;18322.38;;;-141.84;69.76
15260;BME280;34462;51.368;12.364;2024-03-08T00:23:11;18269.56;;;-141.84;69.67
15260;BME280;34462;51.368;12.364;2024-03-08T00:25:41;18308.16;;;-141.84;69.52
15260;BME280;34462;51.368;12.364;2024-03-08T00:28:09;18298.00;;;-141.84;70.57
15260;BME280;34462;51.368;12.364;2024-03-08T00:30:40;18287.84;;;-141.84;70.55
15260;BME280;34462;51.368;12.364;2024-03-08T00:33:09;18300.03;;;-141.84;69.94
15260;BME280;34462;51.368;12.364;2024-03-08T00:35:38;18267.53;;;-141.84;70.32
15260;BME280;34462;51.368;12.364;2024-03-08T00:38:10;18291.91;;;-141.84;69.52
15260;BME280;34462;51.368;12.364;2024-03-08T00:40:38;18298.00;;;-141.84;70.04
15260;BME280;34462;51.368;12.364;2024-03-08T00:43:08;18340.66;;;-141.84;70.48
15260;BME280;34462;51.368;12.364;2024-03-08T00:45:37;18283.78;;;-141.84;70.31
15260;BME280;34462;51.368;12.364;2024-03-08T00:48:06;18273.63;;;-141.84;70.62
15260;BME280;34462;51.368;12.364;2024-03-08T00:50:36;18304.09;;;-141.84;70.20
15260;BME280;34462;51.368;12.364;2024-03-08T00:53:04;18308.16;;;-141.84;70.36
15260;BME280;34462;51.368;12.364;2024-03-08T00:55:32;18251.28;;;-141.84;70.43
15260;BME280;34462;51.368;12.364;2024-03-08T00:58:01;18265.50;;;-141.84;70.08
15260;BME280;34462;51.368;12.364;2024-03-08T01:00:31;18287.84;;;-141.84;70.34
15260;BME280;34462;51.368;12.364;2024-03-08T01:03:00;18269.56;;;-141.84;70.17
15260;BME280;34462;51.368;12.364;2024-03-08T01:05:30;18277.69;;;-141.84;70.32
15260;BME280;34462;51.368;12.364;2024-03-08T01:07:59;18291.91;;;-141.84;70.65
15260;BME280;34462;51.368;12.364;2024-03-08T01:10:27;18257.38;;;-141.84;71.60
15260;BME280;34462;51.368;12.364;2024-03-08T01:12:58;18273.63;;;-141.84;72.16
15260;BME280;34462;51.368;12.364;2024-03-08T01:15:26;18267.53;;;-141.84;72.10
15260;BME280;34462;51.368;12.364;2024-03-08T01:17:56;18269.56;;;-141.84;71.16
15260;BME280;34462;51.368;12.364;2024-03-08T01:20:24;18263.47;;;-141.84;71.12
15260;BME280;34462;51.368;12.364;2024-03-08T01:22:55;18259.41;;;-141.84;70.13
15260;BME280;34462;51.368;12.364;2024-03-08T01:25:23;18259.41;;;-141.84;70.23
15260;BME280;34462;51.368;12.364;2024-03-08T01:27:52;18289.88;;;-141.84;70.99
15260;BME280;34462;51.368;12.364;2024-03-08T01:30:21;18277.69;;;-141.84;70.62
15260;BME280;34462;51.368;12.364;2024-03-08T01:32:50;18271.59;;;-141.84;71.04
15260;BME280;34462;51.368;12.364;2024-03-08T01:35:22;18293.94;;;-141.84;70.52
15260;BME280;34462;51.368;12.364;2024-03-08T01:37:50;18271.59;;;-141.84;71.16
15260;BME280;34462;51.368;12.364;2024-03-08T01:40:18;18314.25;;;-141.84;70.48
15260;BME280;34462;51.368;12.364;2024-03-08T01:42:46;18259.41;;;-141.84;70.60
15260;BME280;34462;51.368;12.364;2024-03-08T01:45:15;18271.59;;;-141.84;71.59
15260;BME280;34462;51.368;12.364;2024-03-08T01:47:43;18275.66;;;-141.84;71.38
15260;BME280;34462;51.368;12.364;2024-03-08T01:50:14;18257.38;;;-141.84;71.75
15260;BME280;34462;51.368;12.364;2024-03-08T01:52:45;18259.41;;;-141.84;71.15
15260;BME280;34462;51.368;12.364;2024-03-08T01:55:13;18253.31;;;-141.84;71.32
15260;BME280;34462;51.368;12.364;2024-03-08T01:57:44;18295.97;;;-141.84;70.88
15260;BME280;34462;51.368;12.364;2024-03-08T02:00:14;18271.59;;;-141.84;71.30
15260;BME280;34462;51.368;12.364;2024-03-08T02:02:46;18277.69;;;-141.84;70.98
15260;BME280;34462;51.368;12.364;2024-03-08T02:05:22;18261.44;;;-141.84;71.26
15260;BME280;34462;51.368;12.364;2024-03-08T02:07:51;18273.63;;;-141.84;71.80
15260;BME280;34462;51.368;12.364;2024-03-08T02:10:20;18269.56;;;-141.84;71.48
15260;BME280;34462;51.368;12.364;2024-03-08T02:12:50;18271.59;;;-141.84;71.75
15260;BME280;34462;51.368;12.364;2024-03-08T02:15:19;18310.19;;;-141.84;72.32
15260;BME280;34462;51.368;12.364;2024-03-08T02:17:48;18275.66;;;-141.84;72.99
15260;BME280;34462;51.368;12.364;2024-03-08T02:20:16;18261.44;;;-141.84;72.69
15260;BME280;34462;51.368;12.364;2024-03-08T02:22:48;18261.44;;;-141.84;72.22
15260;BME280;34462;51.368;12.364;2024-03-08T02:25:19;18275.66;;;-141.84;72.80
15260;BME280;34462;51.368;12.364;2024-03-08T02:27:47;18295.97;;;-141.84;73.68
15260;BME280;34462;51.368;12.364;2024-03-08T02:30:16;18255.34;;;-141.84;74.01
15260;BME280;34462;51.368;12.364;2024-03-08T02:32:44;18291.91;;;-141.84;74.58
15260;BME280;34462;51.368;12.364;2024-03-08T02:35:13;18285.81;;;-141.84;74.85
15260;BME280;34462;51.368;12.364;2024-03-08T02:37:41;18267.53;;;-141.84;75.21
15260;BME280;34462;51.368;12.364;2024-03-08T02:40:12;18285.81;;;-141.84;74.13
15260;BME280;34462;51.368;12.364;2024-03-08T02:42:40;18265.50;;;-141.84;74.67
15260;BME280;34462;51.368;12.364;2024-03-08T02:45:09;18281.75;;;-141.84;75.66
15260;BME280;34462;51.368;12.364;2024-03-08T02:47:38;18308.16;;;-141.84;76.26
15260;BME280;34462;51.368;12.364;2024-03-08T02:50:08;18306.13;;;-141.84;75.98
15260;BME280;34462;51.368;12.364;2024-03-08T02:52:37;18289.88;;;-141.84;76.37
15260;BME280;34462;51.368;12.364;2024-03-08T02:55:06;18285.81;;;-141.84;76.41
15260;BME280;34462;51.368;12.364;2024-03-08T02:57:44;18302.06;;;-141.84;76.75
15260;BME280;34462;51.368;12.364;2024-03-08T03:00:15;18322.38;;;-141.84;77.60
15260;BME280;34462;51.368;12.364;2024-03-08T03:02:43;18379.25;;;-141.84;78.29
15260;BME280;34462;51.368;12.364;2024-03-08T03:05:12;18365.03;;;-141.84;78.63
15260;BME280;34462;51.368;12.364;2024-03-08T03:07:41;18358.94;;;-141.84;78.63
15260;BME280;34462;51.368;12.364;2024-03-08T03:10:09;18468.66;;;-141.84;79.63
15260;BME280;34462;51.368;12.364;2024-03-08T03:12:40;18535.69;;;-141.84;79.95
15260;BME280;34462;51.368;12.364;2024-03-08T03:15:11;18497.09;;;-141.84;79.78
15260;BME280;34462;51.368;12.364;2024-03-08T03:17:40;18491.00;;;-141.84;79.68
15260;BME280;34462;51.368;12.364;2024-03-08T03:20:09;18314.25;;;-141.84;78.25
15260;BME280;34462;51.368;12.364;2024-03-08T03:22:41;18338.63;;;-141.84;78.60
15260;BME280;34462;51.368;12.364;2024-03-08T03:25:14;18322.38;;;-141.84;78.73
15260;BME280;34462;51.368;12.364;2024-03-08T03:27:52;18326.44;;;-141.84;78.72
15260;BME280;34462;51.368;12.364;2024-03-08T03:30:24;18273.63;;;-141.84;78.36
15260;BME280;34462;51.368;12.364;2024-03-08T03:32:53;18271.59;;;-141.84;77.99
15260;BME280;34462;51.368;12.364;2024-03-08T03:35:24;18267.53;;;-141.84;78.01
15260;BME280;34462;51.368;12.364;2024-03-08T03:37:52;18340.66;;;-141.84;78.66
15260;BME280;34462;51.368;12.364;2024-03-08T03:40:33;18350.81;;;-141.84;79.23
15260;BME280;34462;51.368;12.364;2024-03-08T03:43:03;18391.44;;;-141.84;79.45
15260;BME280;34462;51.368;12.364;2024-03-08T03:45:32;18298.00;;;-141.84;78.36
15260;BME280;34462;51.368;12.364;2024-03-08T03:48:05;18267.53;;;-141.84;78.27
15260;BME280;34462;51.368;12.364;2024-03-08T03:50:37;18338.63;;;-141.84;79.29
15260;BME280;34462;51.368;12.364;2024-03-08T03:53:07;18468.66;;;-141.84;79.88
15260;BME280;34462;51.368;12.364;2024-03-08T03:55:38;18444.28;;;-141.84;79.99
15260;BME280;34462;51.368;12.364;2024-03-08T03:58:09;18308.16;;;-141.84;79.05
15260;BME280;34462;51.368;12.364;2024-03-08T04:00:38;18389.41;;;-141.84;79.42
15260;BME280;34462;51.368;12.364;2024-03-08T04:03:08;18367.06;;;-141.84;79.50
15260;BME280;34462;51.368;12.364;2024-03-08T04:05:36;18440.22;;;-141.84;79.93
15260;BME280;34462;51.368;12.364;2024-03-08T04:08:05;18499.13;;;-141.84;79.95
15260;BME280;34462;51.368;12.364;2024-03-08T04:10:33;18293.94;;;-141.84;78.45
15260;BME280;34462;51.368;12.364;2024-03-08T04:13:02;18267.53;;;-141.84;78.45
15260;BME280;34462;51.368;12.364;2024-03-08T04:15:32;18304.09;;;-141.84;78.94
15260;BME280;34462;51.368;12.364;2024-03-08T04:18:00;18336.59;;;-141.84;78.87
15260;BME280;34462;51.368;12.364;2024-03-08T04:20:29;18320.34;;;-141.84;78.86
15260;BME280;34462;51.368;12.364;2024-03-08T04:22:57;18365.03;;;-141.84;79.32
15260;BME280;34462;51.368;12.364;2024-03-08T04:25:26;18428.03;;;-141.84;80.16
15260;BME280;34462;51.368;12.364;2024-03-08T04:27:54;18543.81;;;-141.84;80.71
15260;BME280;34462;51.368;12.364;2024-03-08T04:30:23;18673.84;;;-141.84;81.14
15260;BME280;34462;51.368;12.364;2024-03-08T04:32:53;18738.88;;;-141.84;81.31
15260;BME280;34462;51.368;12.364;2024-03-08T04:35:21;18493.03;;;-141.84;80.34
15260;BME280;34462;51.368;12.364;2024-03-08T04:37:49;18482.88;;;-141.84;80.41
15260;BME280;34462;51.368;12.364;2024-03-08T04:40:18;18596.66;;;-141.84;80.81
15260;BME280;34462;51.368;12.364;2024-03-08T04:42:46;18844.53;;;-141.84;81.65
15260;BME280;34462;51.368;12.364;2024-03-08T04:45:18;18257.38;;;-141.84;78.21
15260;BME280;34462;51.368;12.364;2024-03-08T04:47:46;18338.63;;;-141.84;79.15
15260;BME280;34462;51.368;12.364;2024-03-08T04:50:16;18360.97;;;-141.84;79.31
15260;BME280;34462;51.368;12.364;2024-03-08T04:52:48;18541.78;;;-141.84;80.66
15260;BME280;34462;51.368;12.364;2024-03-08T04:55:17;18564.13;;;-141.84;80.50
15260;BME280;34462;51.368;12.364;2024-03-08T04:57:48;18549.91;;;-141.84;80.76
15260;BME280;34462;51.368;12.364;2024-03-08T05:00:17;18627.13;;;-141.84;81.15
15260;BME280;34462;51.368;12.364;2024-03-08T05:02:46;18938.00;;;-141.84;81.73
15260;BME280;34462;51.368;12.364;2024-03-08T05:05:16;18696.19;;;-141.84;81.23
15260;BME280;34462;51.368;12.364;2024-03-08T05:07:44;18785.59;;;-141.84;81.52
15260;BME280;34462;51.368;12.364;2024-03-08T05:10:13;18832.34;;;-141.84;81.52
15260;BME280;34462;51.368;12.364;2024-03-08T05:12:49;18643.38;;;-141.84;81.06
15260;BME280;34462;51.368;12.364;2024-03-08T05:15:20;18775.44;;;-141.84;81.38
15260;BME280;34462;51.368;12.364;2024-03-08T05:17:48;18879.06;;;-141.84;81.84
15260;BME280;34462;51.368;12.364;2024-03-08T05:20:18;19179.78;;;-141.84;82.38
15260;BME280;34462;51.368;12.364;2024-03-08T05:22:46;19019.28;;;-141.84;82.01
15260;BME280;34462;51.368;12.364;2024-03-08T05:25:15;19283.44;;;-141.84;82.60
15260;BME280;34462;51.368;12.364;2024-03-08T05:27:44;19533.38;;;-141.84;82.99
15260;BME280;34462;51.368;12.364;2024-03-08T05:30:18;19202.16;;;-141.84;82.53
15260;BME280;34462;51.368;12.364;2024-03-08T05:32:48;19482.56;;;-141.84;82.99
15260;BME280;34462;51.368;12.364;2024-03-08T05:35:18;20283.34;;;-141.84;83.82
15260;BME280;34462;51.368;12.364;2024-03-08T05:37:47;20620.78;;;-141.84;84.01
15260;BME280;34462;51.368;12.364;2024-03-08T05:40:15;20956.19;;;-141.84;84.05
15260;BME280;34462;51.368;12.364;2024-03-08T05:42:47;19817.91;;;-141.84;83.25
15260;BME280;34462;51.368;12.364;2024-03-08T05:45:15;19460.22;;;-141.84;82.95
15260;BME280;34462;51.368;12.364;2024-03-08T05:47:43;18594.63;;;-141.84;80.92
15260;BME280;34462;51.368;12.364;2024-03-08T05:50:14;18663.69;;;-141.84;81.29
15260;BME280;34462;51.368;12.364;2024-03-08T05:52:45;18673.84;;;-141.84;81.08
15260;BME280;34462;51.368;12.364;2024-03-08T05:55:14;18586.50;;;-141.84;80.97
15260;BME280;34462;51.368;12.364;2024-03-08T05:57:42;18598.69;;;-141.84;81.04
15260;BME280;34462;51.368;12.364;2024-03-08T06:00:11;18858.75;;;-141.84;81.70
15260;BME280;34462;51.368;12.364;2024-03-08T06:02:42;18509.28;;;-141.84;80.60
15260;BME280;34462;51.368;12.364;2024-03-08T06:05:11;18616.97;;;-141.84;80.80
15260;BME280;34462;51.368;12.364;2024-03-08T06:07:39;18425.97;;;-141.84;79.86
15260;BME280;34462;51.368;12.364;2024-03-08T06:10:11;18267.53;;;-141.84;79.19
15260;BME280;34462;51.368;12.364;2024-03-08T06:12:40;18444.28;;;-141.84;80.18
15260;BME280;34462;51.368;12.364;2024-03-08T06:15:10;18363.00;;;-141.84;79.46
15260;BME280;34462;51.368;12.364;2024-03-08T06:17:42;18279.72;;;-141.84;78.73
15260;BME280;34462;51.368;12.364;2024-03-08T06:20:11;18273.63;;;-141.84;78.71
15260;BME280;34462;51.368;12.364;2024-03-08T06:22:41;18245.19;;;-141.84;78.19
15260;BME280;34462;51.368;12.364;2024-03-08T06:25:11;18216.72;;;-141.84;77.44
15260;BME280;34462;51.368;12.364;2024-03-08T06:27:41;18127.34;;;-141.84;76.74
15260;BME280;34462;51.368;12.364;2024-03-08T06:30:12;18198.44;;;-141.84;76.29
15260;BME280;34462;51.368;12.364;2024-03-08T06:32:43;18151.72;;;-141.84;76.14
15260;BME280;34462;51.368;12.364;2024-03-08T06:35:11;18131.41;;;-141.84;75.36
15260;BME280;34462;51.368;12.364;2024-03-08T06:37:40;18172.03;;;-141.84;75.95
15260;BME280;34462;51.368;12.364;2024-03-08T06:40:13;18143.59;;;-141.84;74.78
15260;BME280;34462;51.368;12.364;2024-03-08T06:42:41;18125.31;;;-141.84;73.94
15260;BME280;34462;51.368;12.364;2024-03-08T06:45:10;18155.78;;;-141.84;74.27
15260;BME280;34462;51.368;12.364;2024-03-08T06:47:40;18172.03;;;-141.84;74.43
15260;BME280;34462;51.368;12.364;2024-03-08T06:50:10;18141.56;;;-141.84;74.12
15260;BME280;34462;51.368;12.364;2024-03-08T06:52:40;18143.59;;;-141.84;74.29
15260;BME280;34462;51.368;12.364;2024-03-08T06:55:11;18151.72;;;-141.84;72.86
15260;BME280;34462;51.368;12.364;2024-03-08T06:57:41;18143.59;;;-141.84;72.76
15260;BME280;34462;51.368;12.364;2024-03-08T07:00:11;18145.63;;;-141.84;71.59
15260;BME280;34462;51.368;12.364;2024-03-08T07:02:46;18157.81;;;-141.84;71.04
15260;BME280;34462;51.368;12.364;2024-03-08T07:05:17;18176.09;;;-141.84;70.83
15260;BME280;34462;51.368;12.364;2024-03-08T07:07:48;18182.19;;;-141.84;71.57
15260;BME280;34462;51.368;12.364;2024-03-08T07:10:20;18180.16;;;-141.84;70.03
15260;BME280;34462;51.368;12.364;2024-03-08T07:12:59;18165.94;;;-141.84;69.57
15260;BME280;34462;51.368;12.364;2024-03-08T07:15:39;18218.75;;;-141.84;69.55
15260;BME280;34462;51.368;12.364;2024-03-08T07:18:10;18186.25;;;-141.84;68.62
15260;BME280;34462;51.368;12.364;2024-03-08T07:20:41;18251.28;;;-141.84;68.54
15260;BME280;34462;51.368;12.364;2024-03-08T07:23:11;18241.13;;;-141.84;67.43
15260;BME280;34462;51.368;12.364;2024-03-08T07:26:01;18220.78;;;-141.84;67.14
15260;BME280;34462;51.368;12.364;2024-03-08T07:28:30;18216.72;;;-141.84;67.78
15260;BME280;34462;51.368;12.364;2024-03-08T07:30:58;18222.81;;;-141.84;67.85
15260;BME280;34462;51.368;12.364;2024-03-08T07:33:40;18230.94;;;-141.84;66.61
15260;BME280;34462;51.368;12.364;2024-03-08T07:36:18;18249.25;;;-141.84;66.34
15260;BME280;34462;51.368;12.364;2024-03-08T07:38:48;18267.53;;;-141.84;66.40
15260;BME280;34462;51.368;12.364;2024-03-08T07:41:19;18257.38;;;-141.84;65.42
15260;BME280;34462;51.368;12.364;2024-03-08T07:43:49;18239.09;;;-141.84;64.40
15260;BME280;34462;51.368;12.364;2024-03-08T07:46:18;18289.88;;;-141.84;63.27
15260;BME280;34462;51.368;12.364;2024-03-08T07:48:48;18312.22;;;-141.84;62.71
15260;BME280;34462;51.368;12.364;2024-03-08T07:51:23;18289.88;;;-141.84;62.63
15260;BME280;34462;51.368;12.364;2024-03-08T07:53:54;18310.19;;;-141.84;62.93
15260;BME280;34462;51.368;12.364;2024-03-08T07:56:26;18261.44;;;-141.84;62.04
15260;BME280;34462;51.368;12.364;2024-03-08T07:58:54;18338.63;;;-141.84;61.78
15260;BME280;34462;51.368;12.364;2024-03-08T08:01:30;18320.34;;;-141.84;61.79
15260;BME280;34462;51.368;12.364;2024-03-08T08:04:00;18330.50;;;-141.84;61.40
15260;BME280;34462;51.368;12.364;2024-03-08T08:06:41;18306.13;;;-141.84;61.56
15260;BME280;34462;51.368;12.364;2024-03-08T08:09:11;18332.53;;;-141.84;61.27
15260;BME280;34462;51.368;12.364;2024-03-08T08:11:47;18318.31;;;-141.84;60.18
15260;BME280;34462;51.368;12.364;2024-03-08T08:14:18;18308.16;;;-141.84;59.80
15260;BME280;34462;51.368;12.364;2024-03-08T08:16:54;18350.81;;;-141.84;60.07
15260;BME280;34462;51.368;12.364;2024-03-08T08:19:25;18363.00;;;-141.84;59.50
15260;BME280;34462;51.368;12.364;2024-03-08T08:21:55;18346.75;;;-141.84;59.34
15260;BME280;34462;51.368;12.364;2024-03-08T08:24:27;18369.09;;;-141.84;59.14
15260;BME280;34462;51.368;12.364;2024-03-08T08:27:02;18375.19;;;-141.84;58.53
15260;BME280;34462;51.368;12.364;2024-03-08T08:29:31;18367.06;;;-141.84;59.15
15260;BME280;34462;51.368;12.364;2024-03-08T08:32:06;18356.91;;;-141.84;59.82
15260;BME280;34462;51.368;12.364;2024-03-08T08:34:36;18377.22;;;-141.84;59.51
15260;BME280;34462;51.368;12.364;2024-03-08T08:37:05;18391.44;;;-141.84;59.09
15260;BME280;34462;51.368;12.364;2024-03-08T08:39:37;18409.72;;;-141.84;57.77
15260;BME280;34462;51.368;12.364;2024-03-08T08:42:07;18383.31;;;-141.84;58.10
15260;BME280;34462;51.368;12.364;2024-03-08T08:44:36;18395.50;;;-141.84;58.14
15260;BME280;34462;51.368;12.364;2024-03-08T08:47:04;18430.06;;;-141.84;56.27
15260;BME280;34462;51.368;12.364;2024-03-08T08:49:41;18419.88;;;-141.84;55.97
15260;BME280;34462;51.368;12.364;2024-03-08T08:52:10;18432.09;;;-141.84;55.88
15260;BME280;34462;51.368;12.364;2024-03-08T08:54:43;18436.16;;;-141.84;56.23
15260;BME280;34462;51.368;12.364;2024-03-08T08:57:18;18430.06;;;-141.84;55.50
15260;BME280;34462;51.368;12.364;2024-03-08T08:59:48;18432.09;;;-141.84;54.90
15260;BME280;34462;51.368;12.364;2024-03-08T09:02:17;18458.50;;;-141.84;54.56
15260;BME280;34462;51.368;12.364;2024-03-08T09:04:48;18468.66;;;-141.84;54.50
15260;BME280;34462;51.368;12.364;2024-03-08T09:07:17;18468.66;;;-141.84;54.62
15260;BME280;34462;51.368;12.364;2024-03-08T09:09:46;18491.00;;;-141.84;54.50
15260;BME280;34462;51.368;12.364;2024-03-08T09:12:14;18486.94;;;-141.84;54.25
15260;BME280;34462;51.368;12.364;2024-03-08T09:14:44;18480.84;;;-141.84;54.17
15260;BME280;34462;51.368;12.364;2024-03-08T09:17:12;18476.78;;;-141.84;53.49
15260;BME280;34462;51.368;12.364;2024-03-08T09:19:44;18501.16;;;-141.84;53.17
15260;BME280;34462;51.368;12.364;2024-03-08T09:22:14;18505.22;;;-141.84;53.48
15260;BME280;34462;51.368;12.364;2024-03-08T09:24:44;18491.00;;;-141.84;53.45
15260;BME280;34462;51.368;12.364;2024-03-08T09:27:14;18519.44;;;-141.84;52.74
15260;BME280;34462;51.368;12.364;2024-03-08T09:29:43;18551.94;;;-141.84;52.25
15260;BME280;34462;51.368;12.364;2024-03-08T09:32:12;18541.78;;;-141.84;51.91
15260;BME280;34462;51.368;12.364;2024-03-08T09:34:41;18515.38;;;-141.84;51.90
15260;BME280;34462;51.368;12.364;2024-03-08T09:37:10;18523.50;;;-141.84;51.62
15260;BME280;34462;51.368;12.364;2024-03-08T09:39:39;18519.44;;;-141.84;51.43
15260;BME280;34462;51.368;12.364;2024-03-08T09:42:08;18513.34;;;-141.84;51.64
15260;BME280;34462;51.368;12.364;2024-03-08T09:44:37;18539.75;;;-141.84;51.64
15260;BME280;34462;51.368;12.364;2024-03-08T09:47:09;18517.41;;;-141.84;51.59
15260;BME280;34462;51.368;12.364;2024-03-08T09:49:41;18556.00;;;-141.84;51.16
15260;BME280;34462;51.368;12.364;2024-03-08T09:52:11;18525.53;;;-141.84;51.04
15260;BME280;34462;51.368;12.364;2024-03-08T09:54:40;18525.53;;;-141.84;50.81
15260;BME280;34462;51.368;12.364;2024-03-08T09:57:11;18578.38;;;-141.84;49.95
15260;BME280;34462;51.368;12.364;2024-03-08T09:59:40;18580.41;;;-141.84;50.01
15260;BME280;34462;51.368;12.364;2024-03-08T10:02:18;18586.50;;;-141.84;50.18
15260;BME280;34462;51.368;12.364;2024-03-08T10:04:48;18574.28;;;-141.84;50.38
15260;BME280;34462;51.368;12.364;2024-03-08T10:07:17;18586.50;;;-141.84;49.84
15260;BME280;34462;51.368;12.364;2024-03-08T10:09:46;18574.28;;;-141.84;49.87
15260;BME280;34462;51.368;12.364;2024-03-08T10:12:17;18598.69;;;-141.84;49.85
15260;BME280;34462;51.368;12.364;2024-03-08T10:14:46;18594.63;;;-141.84;49.31
15260;BME280;34462;51.368;12.364;2024-03-08T10:17:16;18580.41;;;-141.84;49.63
15260;BME280;34462;51.368;12.364;2024-03-08T10:19:50;18616.97;;;-141.84;49.41
15260;BME280;34462;51.368;12.364;2024-03-08T10:22:20;18598.69;;;-141.84;49.17
15260;BME280;34462;51.368;12.364;2024-03-08T10:24:49;18623.06;;;-141.84;48.76
15260;BME280;34462;51.368;12.364;2024-03-08T10:27:18;18600.72;;;-141.84;48.72
15260;BME280;34462;51.368;12.364;2024-03-08T10:29:48;18614.94;;;-141.84;48.78
15260;BME280;34462;51.368;12.364;2024-03-08T10:32:20;18633.22;;;-141.84;48.31
15260;BME280;34462;51.368;12.364;2024-03-08T10:34:48;18619.00;;;-141.84;48.41
15260;BME280;34462;51.368;12.364;2024-03-08T10:37:22;18625.09;;;-141.84;48.46
15260;BME280;34462;51.368;12.364;2024-03-08T10:40:02;18639.31;;;-141.84;47.56
15260;BME280;34462;51.368;12.364;2024-03-08T10:42:43;18651.50;;;-141.84;47.78
15260;BME280;34462;51.368;12.364;2024-03-08T10:45:34;18651.50;;;-141.84;46.95
15260;BME280;34462;51.368;12.364;2024-03-08T10:48:28;18667.75;;;-141.84;46.81
15260;BME280;34462;51.368;12.364;2024-03-08T10:51:05;18637.28;;;-141.84;47.03
15260;BME280;34462;51.368;12.364;2024-03-08T10:53:35;18679.94;;;-141.84;47.17
15260;BME280;34462;51.368;12.364;2024-03-08T10:56:08;18653.53;;;-141.84;46.86
15260;BME280;34462;51.368;12.364;2024-03-08T10:58:39;18671.81;;;-141.84;46.43
15260;BME280;34462;51.368;12.364;2024-03-08T11:01:08;18704.31;;;-141.84;46.48
15260;BME280;34462;51.368;12.364;2024-03-08T11:03:48;18667.75;;;-141.84;46.53
15260;BME280;34462;51.368;12.364;2024-03-08T11:06:30;18684.00;;;-141.84;46.87
15260;BME280;34462;51.368;12.364;2024-03-08T11:08:59;18708.41;;;-141.84;46.83
15260;BME280;34462;51.368;12.364;2024-03-08T11:11:29;18708.41;;;-141.84;46.33
15260;BME280;34462;51.368;12.364;2024-03-08T11:14:02;18704.31;;;-141.84;46.29
15260;BME280;34462;51.368;12.364;2024-03-08T11:16:39;18710.44;;;-141.84;45.81
15260;BME280;34462;51.368;12.364;2024-03-08T11:19:27;18686.03;;;-141.84;46.05
15260;BME280;34462;51.368;12.364;2024-03-08T11:22:01;18728.72;;;-141.84;45.92
15260;BME280;34462;51.368;12.364;2024-03-08T11:24:40;18706.38;;;-141.84;46.14
15260;BME280;34462;51.368;12.364;2024-03-08T11:27:09;18734.81;;;-141.84;46.53
15260;BME280;34462;51.368;12.364;2024-03-08T11:29:39;18675.88;;;-141.84;46.64
15260;BME280;34462;51.368;12.364;2024-03-08T11:32:11;18700.25;;;-141.84;46.44
15260;BME280;34462;51.368;12.364;2024-03-08T11:34:43;18704.31;;;-141.84;46.18
15260;BME280;34462;51.368;12.364;2024-03-08T11:37:14;18771.38;;;-141.84;46.48
15260;BME280;34462;51.368;12.364;2024-03-08T11:39:48;18712.47;;;-141.84;46.03
15260;BME280;34462;51.368;12.364;2024-03-08T11:42:17;18728.72;;;-141.84;45.51
15260;BME280;34462;51.368;12.364;2024-03-08T11:44:47;18749.03;;;-141.84;45.69
15260;BME280;34462;51.368;12.364;2024-03-08T11:47:15;18720.59;;;-141.84;46.03
15260;BME280;34462;51.368;12.364;2024-03-08T11:49:45;18724.66;;;-141.84;46.06
15260;BME280;34462;51.368;12.364;2024-03-08T11:52:17;18716.53;;;-141.84;45.99
15260;BME280;34462;51.368;12.364;2024-03-08T11:54:52;18726.69;;;-141.84;46.11
15260;BME280;34462;51.368;12.364;2024-03-08T11:57:22;18749.03;;;-141.84;46.38
15260;BME280;34462;51.368;12.364;2024-03-08T11:59:51;18765.28;;;-141.84;45.81
15260;BME280;34462;51.368;12.364;2024-03-08T12:02:24;18787.63;;;-141.84;45.35
15260;BME280;34462;51.368;12.364;2024-03-08T12:04:58;18779.50;;;-141.84;45.04
15260;BME280;34462;51.368;12.364;2024-03-08T12:07:28;18773.41;;;-141.84;45.27
15260;BME280;34462;51.368;12.364;2024-03-08T12:10:17;18757.16;;;-141.84;45.51
15260;BME280;34462;51.368;12.364;2024-03-08T12:12:46;18793.72;;;-141.84;45.20
15260;BME280;34462;51.368;12.364;2024-03-08T12:15:15;18779.50;;;-141.84;45.00
15260;BME280;34462;51.368;12.364;2024-03-08T12:17:47;18795.75;;;-141.84;45.07
15260;BME280;34462;51.368;12.364;2024-03-08T12:20:19;18775.44;;;-141.84;45.41
15260;BME280;34462;51.368;12.364;2024-03-08T12:22:51;18807.94;;;-141.84;44.76
15260;BME280;34462;51.368;12.364;2024-03-08T12:25:20;18795.75;;;-141.84;44.99
15260;BME280;34462;51.368;12.364;2024-03-08T12:27:49;18773.41;;;-141.84;45.09
15260;BME280;34462;51.368;12.364;2024-03-08T12:30:23;18757.16;;;-141.84;45.17
15260;BME280;34462;51.368;12.364;2024-03-08T12:32:56;18793.72;;;-141.84;45.47
15260;BME280;34462;51.368;12.364;2024-03-08T12:35:28;18785.59;;;-141.84;45.69
15260;BME280;34462;51.368;12.364;2024-03-08T12:37:58;18803.88;;;-141.84;45.50
15260;BME280;34462;51.368;12.364;2024-03-08T12:40:28;18781.53;;;-141.84;45.35
15260;BME280;34462;51.368;12.364;2024-03-08T12:42:59;18775.44;;;-141.84;45.38
15260;BME280;34462;51.368;12.364;2024-03-08T12:45:27;18777.47;;;-141.84;45.10
15260;BME280;34462;51.368;12.364;2024-03-08T12:47:56;18826.25;;;-141.84;44.90